New Cambria, Kansas
Current Conditions -  °F | °C
As of 5:53 PM on Thursday 18 Dec 2014 (Local Time) from KSLN Reporting Station
Overcast Overcast  
Wind Chill: 32°   Ceiling: 1000
Heat Index: 32°   Visibility: 9mi
Dew Point: 27°   Wind: 3mph
Humidity: 82%   Direction: 360°N
Pressure: 30.2"   Gusts: NA
Location:  38.88°N, 97.51°W
Report Text: KSLN 182353Z 36003KT 9SM OVC010 00/M03 A3020 RMK AO2 SLP240 T00001028 10000 21011 51005
Loading
Personal Weather Stations






























Interactive Weather Map New forecast layout! Learn more

10-Day Weather Forecast

Advertisements
Track Severe Weather on mobile